createdAt,value
2023-09-08T00:00:28.931Z,5.00
2023-09-08T00:03:33.777Z,5.00
2023-09-08T00:06:38.410Z,4.63
2023-09-08T00:09:43.142Z,4.68
2023-09-08T00:12:48.033Z,5.00
2023-09-08T00:15:52.812Z,4.53
2023-09-08T00:18:59.518Z,4.75
2023-09-08T00:22:07.355Z,5.03
2023-09-08T00:25:12.120Z,5.00
2023-09-08T00:28:16.966Z,5.07
2023-09-08T00:31:21.677Z,5.32
2023-09-08T00:34:26.404Z,5.45
2023-09-08T00:37:31.142Z,5.25
2023-09-08T00:40:35.729Z,5.15
2023-09-08T00:43:40.555Z,5.20
2023-09-08T00:46:45.361Z,5.07
2023-09-08T00:49:52.272Z,5.28
2023-09-08T00:52:56.721Z,5.30
2023-09-08T00:56:01.189Z,5.22
2023-09-08T00:59:08.635Z,4.97
2023-09-08T01:02:13.517Z,4.45
2023-09-08T01:05:18.282Z,5.20
2023-09-08T01:08:30.241Z,4.85
2023-09-08T01:11:37.371Z,5.40
2023-09-08T01:14:42.362Z,5.47
2023-09-08T01:17:47.200Z,5.18
2023-09-08T01:21:28.191Z,5.53
2023-09-08T01:25:04.989Z,5.60
2023-09-08T01:28:11.484Z,4.95
2023-09-08T01:31:18.975Z,4.70
2023-09-08T01:34:24.170Z,5.13
2023-09-08T01:37:28.611Z,5.32
2023-09-08T01:40:33.287Z,6.00
2023-09-08T01:43:37.758Z,5.72
2023-09-08T01:46:42.962Z,5.57
2023-09-08T01:49:47.665Z,5.60
2023-09-08T01:52:52.858Z,5.75
2023-09-08T01:55:57.203Z,5.60
2023-09-08T01:59:01.585Z,5.53
2023-09-08T02:02:06.429Z,5.55
2023-09-08T02:05:11.261Z,5.80
2023-09-08T02:08:16.261Z,5.88
2023-09-08T02:11:20.657Z,5.72
2023-09-08T02:14:28.637Z,6.13
2023-09-08T02:17:33.219Z,5.55
2023-09-08T02:20:38.117Z,5.82
2023-09-08T02:23:42.796Z,6.00
2023-09-08T02:26:47.863Z,6.38
2023-09-08T02:29:52.540Z,6.25
2023-09-08T02:32:57.167Z,5.63
2023-09-08T02:36:06.144Z,6.03
2023-09-08T02:39:12.089Z,5.80
2023-09-08T02:42:17.360Z,5.63
2023-09-08T02:45:22.187Z,6.28
2023-09-08T02:48:28.038Z,6.65
2023-09-08T02:51:32.744Z,6.18
2023-09-08T02:54:37.550Z,5.55
2023-09-08T02:57:42.888Z,5.65
2023-09-08T03:00:47.581Z,6.40
2023-09-08T03:03:53.958Z,6.22
2023-09-08T03:06:59.686Z,6.10
2023-09-08T03:10:04.945Z,6.40
2023-09-08T03:13:09.607Z,5.60
2023-09-08T03:16:14.605Z,6.32
2023-09-08T03:19:19.970Z,6.13
2023-09-08T03:22:25.933Z,6.63
2023-09-08T03:25:31.075Z,6.72
2023-09-08T03:28:37.090Z,6.55
2023-09-08T03:31:42.315Z,6.50
2023-09-08T03:34:46.849Z,6.47
2023-09-08T03:37:51.562Z,6.28
2023-09-08T03:40:56.190Z,6.28
2023-09-08T03:44:00.732Z,6.70
2023-09-08T03:47:06.304Z,6.82
2023-09-08T03:50:11.704Z,6.68
2023-09-08T03:53:16.500Z,6.88
2023-09-08T03:56:21.850Z,6.57
2023-09-08T03:59:26.835Z,6.60
2023-09-08T04:02:31.705Z,6.85
2023-09-08T04:05:36.386Z,6.32
2023-09-08T04:08:41.100Z,6.65
2023-09-08T04:11:45.923Z,6.68
2023-09-08T04:14:50.873Z,7.10
2023-09-08T04:17:56.727Z,6.32
2023-09-08T04:21:01.454Z,6.45
2023-09-08T04:24:07.665Z,6.65
2023-09-08T04:27:13.777Z,7.00
2023-09-08T04:30:20.395Z,6.82
2023-09-08T04:33:25.689Z,7.05
2023-09-08T04:36:31.718Z,6.88
2023-09-08T04:39:38.256Z,7.30
2023-09-08T04:42:43.318Z,7.45
2023-09-08T04:45:48.378Z,7.45
2023-09-08T04:48:53.058Z,7.22
2023-09-08T04:51:58.526Z,7.45
2023-09-08T04:55:04.367Z,6.85
2023-09-08T04:58:09.556Z,7.35
2023-09-08T05:01:14.454Z,7.43
2023-09-08T05:04:19.674Z,6.95
2023-09-08T05:07:25.203Z,6.55
2023-09-08T05:10:31.070Z,7.47
2023-09-08T05:13:35.714Z,6.70
2023-09-08T05:16:50.626Z,7.30
2023-09-08T05:19:59.558Z,7.15
2023-09-08T05:23:04.932Z,7.82
2023-09-08T05:26:09.917Z,7.18
2023-09-08T05:29:14.779Z,7.32
2023-09-08T05:32:19.527Z,6.93
2023-09-08T05:35:23.937Z,7.30
2023-09-08T05:38:29.864Z,6.30
2023-09-08T05:41:35.112Z,6.53
2023-09-08T05:44:41.514Z,8.18
2023-09-08T05:47:46.843Z,7.35
2023-09-08T05:50:51.650Z,7.22
2023-09-08T05:53:56.533Z,7.20
2023-09-08T05:57:01.072Z,7.00
2023-09-08T06:00:06.406Z,6.90
2023-09-08T06:03:18.026Z,6.82
2023-09-08T06:06:23.410Z,7.13
2023-09-08T06:09:28.224Z,7.35
2023-09-08T06:12:40.246Z,7.90
2023-09-08T06:15:45.477Z,7.40
2023-09-08T06:18:50.277Z,6.97
2023-09-08T06:21:57.964Z,6.82
2023-09-08T06:25:02.615Z,6.47
2023-09-08T06:28:08.152Z,5.95
2023-09-08T06:31:13.398Z,5.63
2023-09-08T06:34:23.293Z,6.35
2023-09-08T06:37:30.066Z,5.85
2023-09-08T06:40:34.546Z,6.22
2023-09-08T06:43:39.784Z,6.70
2023-09-08T06:46:51.352Z,6.00
2023-09-08T06:49:56.833Z,6.38
2023-09-08T06:53:01.765Z,5.78
2023-09-08T06:56:07.031Z,6.07
2023-09-08T06:59:13.376Z,6.55
2023-09-08T07:02:18.023Z,4.97
2023-09-08T07:05:23.053Z,5.68
2023-09-08T07:08:27.940Z,5.20
2023-09-08T07:11:33.894Z,5.13
2023-09-08T07:14:39.452Z,6.13
2023-09-08T07:17:44.487Z,6.50
2023-09-08T07:20:52.241Z,6.53
2023-09-08T07:23:59.529Z,5.75
2023-09-08T07:27:08.154Z,6.40
2023-09-08T07:30:13.749Z,6.57
2023-09-08T07:33:20.430Z,6.35
2023-09-08T07:36:25.473Z,6.10
2023-09-08T07:39:32.987Z,5.55
2023-09-08T07:42:37.824Z,5.50
2023-09-08T07:45:43.564Z,5.82
2023-09-08T07:48:48.453Z,5.20
2023-09-08T07:51:53.112Z,5.13
2023-09-08T07:54:57.626Z,4.03
2023-09-08T07:58:06.978Z,4.90
2023-09-08T08:01:13.607Z,5.95
2023-09-08T08:04:18.384Z,5.35
2023-09-08T08:07:22.939Z,5.15
2023-09-08T08:10:28.171Z,5.65
2023-09-08T08:13:32.749Z,4.75
2023-09-08T08:16:37.148Z,5.38
2023-09-08T08:19:41.762Z,5.35
2023-09-08T08:22:47.225Z,5.15
2023-09-08T08:25:54.275Z,4.50
2023-09-08T08:28:59.456Z,4.38
2023-09-08T08:32:04.392Z,5.05
2023-09-08T08:35:09.135Z,5.40
2023-09-08T08:38:13.675Z,4.55
2023-09-08T08:41:18.303Z,4.65
2023-09-08T08:44:24.528Z,4.47
2023-09-08T08:47:30.413Z,4.78
2023-09-08T08:50:37.273Z,4.88
2023-09-08T08:53:43.615Z,5.10
2023-09-08T08:56:48.942Z,5.30
2023-09-08T08:59:54.543Z,4.47
2023-09-08T09:03:13.245Z,4.65
2023-09-08T09:06:20.063Z,4.43
2023-09-08T09:09:26.496Z,4.43
2023-09-08T09:12:31.745Z,3.80
2023-09-08T09:15:36.857Z,4.75
2023-09-08T09:19:01.103Z,4.38
2023-09-08T09:22:05.846Z,4.55
2023-09-08T09:25:11.894Z,5.45
2023-09-08T09:28:17.371Z,4.40
2023-09-08T09:31:26.862Z,4.68
2023-09-08T09:34:31.944Z,4.10
2023-09-08T09:37:37.317Z,4.70
2023-09-08T09:40:43.882Z,4.82
2023-09-08T09:43:49.048Z,4.05
2023-09-08T09:46:56.111Z,4.03
2023-09-08T09:50:01.420Z,3.90
2023-09-08T09:53:15.776Z,3.88
2023-09-08T09:56:23.193Z,4.13
2023-09-08T09:59:28.776Z,3.88
2023-09-08T10:02:34.885Z,3.67
2023-09-08T10:05:40.199Z,3.67
2023-09-08T10:08:45.498Z,4.38
2023-09-08T10:11:51.238Z,4.50
2023-09-08T10:14:57.717Z,4.30
2023-09-08T10:18:06.886Z,4.72
2023-09-08T10:21:14.379Z,4.40
2023-09-08T10:24:47.571Z,4.20
2023-09-08T10:27:54.623Z,4.88
2023-09-08T10:31:00.123Z,4.63
2023-09-08T10:34:05.496Z,4.22
2023-09-08T10:37:30.584Z,4.72
2023-09-08T10:40:35.397Z,4.47
2023-09-08T10:43:39.952Z,4.57
2023-09-08T10:46:46.263Z,4.43
2023-09-08T10:49:56.731Z,4.05
2023-09-08T10:53:15.580Z,5.22
2023-09-08T10:56:20.569Z,4.18
2023-09-08T10:59:36.558Z,5.38
2023-09-08T11:02:55.690Z,5.28
2023-09-08T11:06:00.492Z,6.13
2023-09-08T11:09:09.245Z,6.35
2023-09-08T11:12:17.071Z,6.75
2023-09-08T11:15:21.895Z,6.20
2023-09-08T11:18:38.194Z,5.88
2023-09-08T11:21:43.315Z,5.88
2023-09-08T11:24:49.458Z,5.55
2023-09-08T11:27:55.432Z,5.60
2023-09-08T11:31:00.316Z,6.32
2023-09-08T11:34:06.555Z,5.93
2023-09-08T11:37:15.936Z,7.03
2023-09-08T11:40:22.547Z,7.65
2023-09-08T11:43:28.681Z,6.78
2023-09-08T11:46:33.773Z,7.05
2023-09-08T11:49:43.254Z,6.32
2023-09-08T11:52:50.543Z,5.82
2023-09-08T11:55:55.915Z,5.32
2023-09-08T11:59:01.407Z,5.45
2023-09-08T12:02:06.406Z,6.55
2023-09-08T12:05:25.400Z,6.05
2023-09-08T12:08:31.687Z,5.32
2023-09-08T12:11:36.645Z,5.43
2023-09-08T12:14:47.568Z,5.75
2023-09-08T12:17:58.786Z,6.78
2023-09-08T12:21:09.176Z,5.30
2023-09-08T12:24:15.094Z,4.28
2023-09-08T12:27:20.968Z,4.95
2023-09-08T12:30:30.943Z,4.72
2023-09-08T12:33:37.033Z,5.00
2023-09-08T12:36:46.215Z,5.00
2023-09-08T12:39:51.892Z,5.13
2023-09-08T12:43:01.747Z,5.03
2023-09-08T12:46:13.828Z,5.72
2023-09-08T12:49:18.899Z,5.72
2023-09-08T12:52:23.301Z,5.07
2023-09-08T12:55:27.967Z,4.88
2023-09-08T12:58:33.629Z,4.78
2023-09-08T13:01:38.520Z,4.80
2023-09-08T13:04:43.325Z,4.82
2023-09-08T13:07:48.134Z,5.47
2023-09-08T13:10:52.810Z,6.40
2023-09-08T13:13:57.110Z,5.50
2023-09-08T13:17:03.564Z,4.80
2023-09-08T13:20:09.570Z,5.75
2023-09-08T13:23:14.447Z,5.53
2023-09-08T13:26:19.833Z,6.72
2023-09-08T13:29:24.767Z,5.60
2023-09-08T13:32:30.072Z,5.43
2023-09-08T13:35:34.927Z,5.22
2023-09-08T13:38:40.069Z,5.20
2023-09-08T13:41:56.514Z,4.85
2023-09-08T13:45:01.625Z,5.97
2023-09-08T13:48:07.927Z,5.68
2023-09-08T13:51:14.275Z,5.85
2023-09-08T13:54:19.722Z,5.60
2023-09-08T13:57:28.423Z,5.07
2023-09-08T14:00:34.724Z,5.18
2023-09-08T14:04:02.739Z,5.22
2023-09-08T14:07:11.823Z,4.72
2023-09-08T14:13:29.829Z,5.38
2023-09-08T14:16:34.873Z,5.28
2023-09-08T14:19:39.667Z,4.97
2023-09-08T14:22:47.790Z,4.63
2023-09-08T14:25:52.406Z,4.70
2023-09-08T14:28:57.006Z,4.13
2023-09-08T14:32:01.943Z,4.90
2023-09-08T14:35:07.269Z,4.90
2023-09-08T14:38:14.702Z,4.70
2023-09-08T14:41:19.864Z,4.70
2023-09-08T14:44:25.246Z,4.57
2023-09-08T14:47:29.805Z,4.47
2023-09-08T14:50:35.680Z,4.22
2023-09-08T14:53:41.059Z,4.63
2023-09-08T14:56:46.288Z,4.80
2023-09-08T14:59:55.373Z,4.70
2023-09-08T15:03:00.580Z,5.22
2023-09-08T15:06:05.710Z,5.00
2023-09-08T15:09:10.639Z,4.85
2023-09-08T15:12:15.050Z,4.70
2023-09-08T15:15:24.634Z,5.30
2023-09-08T15:18:30.295Z,4.40
2023-09-08T15:21:36.886Z,4.78
2023-09-08T15:24:41.566Z,4.60
2023-09-08T15:27:47.096Z,4.55
2023-09-08T15:30:53.969Z,5.20
2023-09-08T15:33:58.680Z,5.30
2023-09-08T15:37:03.319Z,4.60
2023-09-08T15:40:15.032Z,4.68
2023-09-08T15:43:19.490Z,5.00
2023-09-08T15:46:24.141Z,5.00
2023-09-08T15:49:28.880Z,5.28
2023-09-08T15:52:33.271Z,4.47
2023-09-08T15:55:38.058Z,5.60
2023-09-08T15:58:43.203Z,4.70
2023-09-08T16:01:48.054Z,4.55
2023-09-08T16:04:52.963Z,4.97
2023-09-08T16:07:57.580Z,4.70
2023-09-08T16:11:02.714Z,4.50
2023-09-08T16:14:07.205Z,4.57
2023-09-08T16:17:11.992Z,5.13
2023-09-08T16:20:18.152Z,4.97
2023-09-08T16:23:24.867Z,5.50
2023-09-08T16:26:29.785Z,4.97
2023-09-08T16:29:34.527Z,5.05
2023-09-08T16:32:39.338Z,5.00
2023-09-08T16:35:43.792Z,5.20
2023-09-08T16:38:48.449Z,4.88
2023-09-08T16:41:53.090Z,4.93
2023-09-08T16:44:57.739Z,5.57
2023-09-08T16:48:02.584Z,5.50
2023-09-08T16:51:07.478Z,5.20
2023-09-08T16:54:13.389Z,5.20
2023-09-08T16:57:18.385Z,5.05
2023-09-08T17:00:23.841Z,5.22
2023-09-08T17:03:28.375Z,4.88
2023-09-08T17:06:32.716Z,5.90
2023-09-08T17:09:37.405Z,5.30
2023-09-08T17:12:42.326Z,5.57
2023-09-08T17:15:47.915Z,5.60
2023-09-08T17:18:52.866Z,5.47
2023-09-08T17:21:59.213Z,5.70
2023-09-08T17:25:04.269Z,5.43
2023-09-08T17:28:09.235Z,5.53
2023-09-08T17:31:14.186Z,6.20
2023-09-08T17:34:22.254Z,5.68
2023-09-08T17:37:26.674Z,6.20
2023-09-08T17:40:32.496Z,6.38
2023-09-08T17:43:37.560Z,5.72
2023-09-08T17:46:43.385Z,6.07
2023-09-08T17:49:47.969Z,6.00
2023-09-08T17:52:52.883Z,6.47
2023-09-08T17:55:57.396Z,6.07
2023-09-08T17:59:02.198Z,6.18
2023-09-08T18:02:06.944Z,6.47
2023-09-08T18:05:11.767Z,6.45
2023-09-08T18:08:17.024Z,6.40
2023-09-08T18:11:22.177Z,6.32
2023-09-08T18:14:26.794Z,6.07
2023-09-08T18:17:32.594Z,6.80
2023-09-08T18:20:37.234Z,6.10
2023-09-08T18:23:42.513Z,5.95
2023-09-08T18:26:47.036Z,6.57
2023-09-08T18:29:51.685Z,6.65
2023-09-08T18:32:56.566Z,6.00
2023-09-08T18:36:01.733Z,6.75
2023-09-08T18:39:06.701Z,6.40
2023-09-08T18:42:11.378Z,6.22
2023-09-08T18:45:15.853Z,6.15
2023-09-08T18:48:20.733Z,6.80
2023-09-08T18:51:25.532Z,6.60
2023-09-08T18:54:33.306Z,6.45
2023-09-08T18:57:38.154Z,6.97
2023-09-08T19:00:45.418Z,7.32
2023-09-08T19:03:50.096Z,6.68
2023-09-08T19:06:56.629Z,7.57
2023-09-08T19:10:02.859Z,6.53
2023-09-08T19:13:07.253Z,6.65
2023-09-08T19:16:11.937Z,7.22
2023-09-08T19:19:16.938Z,6.90
2023-09-08T19:22:21.583Z,6.80
2023-09-08T19:25:26.297Z,7.05
2023-09-08T19:28:31.030Z,7.15
2023-09-08T19:31:35.753Z,7.68
2023-09-08T19:34:40.757Z,6.90
2023-09-08T19:37:45.402Z,7.30
2023-09-08T19:41:00.928Z,7.40
2023-09-08T19:44:05.573Z,7.32
2023-09-08T19:47:10.820Z,7.13
2023-09-08T19:50:15.458Z,7.30
2023-09-08T19:53:21.902Z,6.78
2023-09-08T19:56:27.449Z,7.50
2023-09-08T19:59:32.303Z,7.05
2023-09-08T20:02:36.966Z,6.82
2023-09-08T20:05:46.426Z,6.82
2023-09-08T20:08:51.271Z,6.95
2023-09-08T20:11:56.121Z,7.00
2023-09-08T20:15:00.435Z,6.68
2023-09-08T20:18:05.437Z,6.55
2023-09-08T20:21:10.983Z,7.63
2023-09-08T20:24:16.073Z,7.60
2023-09-08T20:27:20.882Z,8.25
2023-09-08T20:30:25.749Z,8.30
2023-09-08T20:33:30.965Z,9.32
2023-09-08T20:36:35.391Z,9.43
2023-09-08T20:39:39.986Z,9.88
2023-09-08T20:42:44.794Z,9.25
2023-09-08T20:45:58.269Z,9.50
2023-09-08T20:49:04.130Z,8.15
2023-09-08T20:52:12.856Z,8.48
2023-09-08T20:55:17.898Z,8.02
2023-09-08T20:58:23.072Z,8.02
2023-09-08T21:01:28.302Z,9.30
2023-09-08T21:04:33.227Z,10.93
2023-09-08T21:07:38.088Z,10.57
2023-09-08T21:10:43.515Z,10.43
2023-09-08T21:13:48.601Z,9.68
2023-09-08T21:16:53.469Z,8.98
2023-09-08T21:20:00.002Z,9.35
2023-09-08T21:23:05.258Z,9.38
2023-09-08T21:26:10.197Z,8.50
2023-09-08T21:29:15.008Z,9.07
2023-09-08T21:32:19.563Z,9.40
2023-09-08T21:35:27.206Z,9.40
2023-09-08T21:38:31.959Z,9.77
2023-09-08T21:41:36.910Z,9.57
2023-09-08T21:44:41.788Z,10.05
2023-09-08T21:47:50.952Z,9.07
2023-09-08T21:50:55.515Z,8.80
2023-09-08T21:54:00.332Z,8.75
2023-09-08T21:57:05.551Z,7.57
2023-09-08T22:00:16.004Z,7.75
2023-09-08T22:03:20.860Z,7.70
2023-09-08T22:06:25.539Z,7.53
2023-09-08T22:09:32.573Z,7.90
2023-09-08T22:12:37.012Z,8.27
2023-09-08T22:15:42.034Z,7.78
2023-09-08T22:18:46.676Z,7.82
2023-09-08T22:21:51.264Z,7.95
2023-09-08T22:24:55.799Z,7.43
2023-09-08T22:28:01.914Z,7.20
2023-09-08T22:31:06.474Z,7.68
2023-09-08T22:34:11.273Z,7.75
2023-09-08T22:37:16.614Z,7.55
2023-09-08T22:40:22.137Z,8.23
2023-09-08T22:43:27.944Z,7.97
2023-09-08T22:46:32.556Z,8.40
2023-09-08T22:50:07.543Z,7.38
2023-09-08T22:53:14.230Z,7.78
2023-09-08T22:56:18.812Z,8.20
2023-09-08T22:59:23.733Z,7.95
2023-09-08T23:02:28.491Z,7.70
2023-09-08T23:05:33.058Z,7.80
2023-09-08T23:08:37.427Z,8.00
2023-09-08T23:11:42.088Z,7.72
2023-09-08T23:14:54.479Z,8.57
2023-09-08T23:17:59.589Z,7.93
2023-09-08T23:21:04.244Z,8.13
2023-09-08T23:24:09.174Z,7.78
2023-09-08T23:27:14.304Z,8.15
2023-09-08T23:30:18.749Z,8.65
2023-09-08T23:33:23.494Z,8.10
2023-09-08T23:36:27.895Z,8.07
2023-09-08T23:39:33.150Z,8.25
2023-09-08T23:42:37.737Z,8.80
2023-09-08T23:45:46.690Z,8.85
2023-09-08T23:48:51.145Z,8.27
2023-09-08T23:51:55.832Z,8.45
2023-09-08T23:55:00.494Z,8.38
2023-09-08T23:58:05.118Z,8.45
